sensor_id;sensor_type;location;lat;lon;timestamp;P1;durP1;ratioP1;P2;durP2;ratioP2
29414;SDS011;20303;48.302;11.914;2022-07-22T00:06:22;16.45;;;14.73;;
29414;SDS011;20303;48.302;11.914;2022-07-22T00:16:23;16.10;;;14.40;;
29414;SDS011;20303;48.302;11.914;2022-07-22T00:26:24;15.68;;;13.55;;
29414;SDS011;20303;48.302;11.914;2022-07-22T00:36:25;15.52;;;13.52;;
29414;SDS011;20303;48.302;11.914;2022-07-22T00:46:27;15.77;;;13.80;;
29414;SDS011;20303;48.302;11.914;2022-07-22T00:56:35;14.25;;;12.85;;
29414;SDS011;20303;48.302;11.914;2022-07-22T01:06:37;15.05;;;13.45;;
29414;SDS011;20303;48.302;11.914;2022-07-22T01:16:38;14.85;;;13.32;;
29414;SDS011;20303;48.302;11.914;2022-07-22T01:26:39;16.73;;;13.65;;
29414;SDS011;20303;48.302;11.914;2022-07-22T01:36:40;14.82;;;12.85;;
29414;SDS011;20303;48.302;11.914;2022-07-22T01:46:42;15.02;;;13.43;;
29414;SDS011;20303;48.302;11.914;2022-07-22T01:56:43;14.73;;;13.00;;
29414;SDS011;20303;48.302;11.914;2022-07-22T02:06:44;14.77;;;12.82;;
29414;SDS011;20303;48.302;11.914;2022-07-22T02:16:45;13.98;;;12.57;;
29414;SDS011;20303;48.302;11.914;2022-07-22T02:26:46;14.75;;;13.23;;
29414;SDS011;20303;48.302;11.914;2022-07-22T02:36:47;14.73;;;12.40;;
29414;SDS011;20303;48.302;11.914;2022-07-22T02:46:48;15.10;;;12.98;;
29414;SDS011;20303;48.302;11.914;2022-07-22T02:56:49;14.30;;;12.77;;
29414;SDS011;20303;48.302;11.914;2022-07-22T03:06:50;14.38;;;12.98;;
29414;SDS011;20303;48.302;11.914;2022-07-22T03:16:51;14.40;;;12.50;;
29414;SDS011;20303;48.302;11.914;2022-07-22T03:27:01;14.05;;;12.57;;
29414;SDS011;20303;48.302;11.914;2022-07-22T03:37:02;15.17;;;13.00;;
29414;SDS011;20303;48.302;11.914;2022-07-22T03:47:03;14.20;;;12.38;;
29414;SDS011;20303;48.302;11.914;2022-07-22T03:57:04;15.68;;;12.70;;
29414;SDS011;20303;48.302;11.914;2022-07-22T04:07:07;13.80;;;11.90;;
29414;SDS011;20303;48.302;11.914;2022-07-22T04:17:08;15.88;;;12.25;;
29414;SDS011;20303;48.302;11.914;2022-07-22T04:27:09;14.90;;;12.30;;
29414;SDS011;20303;48.302;11.914;2022-07-22T04:37:10;14.07;;;12.23;;
29414;SDS011;20303;48.302;11.914;2022-07-22T04:47:11;14.68;;;12.25;;
29414;SDS011;20303;48.302;11.914;2022-07-22T04:57:12;16.65;;;12.20;;
29414;SDS011;20303;48.302;11.914;2022-07-22T05:07:14;18.95;;;13.27;;
29414;SDS011;20303;48.302;11.914;2022-07-22T05:17:16;17.55;;;13.75;;
29414;SDS011;20303;48.302;11.914;2022-07-22T05:27:18;20.67;;;14.05;;
29414;SDS011;20303;48.302;11.914;2022-07-22T05:37:21;19.85;;;16.42;;
29414;SDS011;20303;48.302;11.914;2022-07-22T05:47:24;25.10;;;17.33;;
29414;SDS011;20303;48.302;11.914;2022-07-22T05:57:27;20.83;;;18.20;;
29414;SDS011;20303;48.302;11.914;2022-07-22T06:07:28;23.55;;;18.48;;
29414;SDS011;20303;48.302;11.914;2022-07-22T06:17:29;24.73;;;18.83;;
29414;SDS011;20303;48.302;11.914;2022-07-22T06:27:31;17.83;;;15.73;;
29414;SDS011;20303;48.302;11.914;2022-07-22T06:37:32;21.65;;;18.30;;
29414;SDS011;20303;48.302;11.914;2022-07-22T06:47:33;24.23;;;18.98;;
29414;SDS011;20303;48.302;11.914;2022-07-22T06:57:35;18.23;;;15.90;;
29414;SDS011;20303;48.302;11.914;2022-07-22T07:07:36;19.17;;;14.98;;
29414;SDS011;20303;48.302;11.914;2022-07-22T07:17:40;17.73;;;14.75;;
29414;SDS011;20303;48.302;11.914;2022-07-22T07:27:41;18.05;;;15.77;;
29414;SDS011;20303;48.302;11.914;2022-07-22T07:37:46;14.68;;;13.00;;
29414;SDS011;20303;48.302;11.914;2022-07-22T07:47:48;14.93;;;12.77;;
29414;SDS011;20303;48.302;11.914;2022-07-22T07:57:50;14.50;;;11.80;;
29414;SDS011;20303;48.302;11.914;2022-07-22T08:07:52;11.68;;;10.38;;
29414;SDS011;20303;48.302;11.914;2022-07-22T08:17:54;13.95;;;11.00;;
29414;SDS011;20303;48.302;11.914;2022-07-22T08:27:55;11.88;;;10.68;;
29414;SDS011;20303;48.302;11.914;2022-07-22T08:38:00;15.77;;;10.65;;
29414;SDS011;20303;48.302;11.914;2022-07-22T08:48:01;11.25;;;10.13;;
29414;SDS011;20303;48.302;11.914;2022-07-22T08:58:05;11.40;;;10.23;;
29414;SDS011;20303;48.302;11.914;2022-07-22T09:08:06;11.57;;;10.00;;
29414;SDS011;20303;48.302;11.914;2022-07-22T09:18:08;13.70;;;10.32;;
29414;SDS011;20303;48.302;11.914;2022-07-22T09:28:15;12.80;;;10.45;;
29414;SDS011;20303;48.302;11.914;2022-07-22T09:48:27;10.63;;;9.35;;
29414;SDS011;20303;48.302;11.914;2022-07-22T09:58:29;10.02;;;9.00;;
29414;SDS011;20303;48.302;11.914;2022-07-22T10:08:33;9.75;;;8.75;;
29414;SDS011;20303;48.302;11.914;2022-07-22T10:18:34;9.30;;;8.30;;
29414;SDS011;20303;48.302;11.914;2022-07-22T10:28:36;9.77;;;8.80;;
29414;SDS011;20303;48.302;11.914;2022-07-22T10:38:37;9.30;;;8.40;;
29414;SDS011;20303;48.302;11.914;2022-07-22T10:58:42;10.57;;;8.60;;
29414;SDS011;20303;48.302;11.914;2022-07-22T11:08:45;9.60;;;8.52;;
29414;SDS011;20303;48.302;11.914;2022-07-22T11:18:56;9.30;;;8.40;;
29414;SDS011;20303;48.302;11.914;2022-07-22T11:28:59;9.55;;;8.55;;
29414;SDS011;20303;48.302;11.914;2022-07-22T11:39:00;10.00;;;8.98;;
29414;SDS011;20303;48.302;11.914;2022-07-22T11:49:02;10.10;;;8.48;;
29414;SDS011;20303;48.302;11.914;2022-07-22T11:59:04;9.50;;;8.55;;
29414;SDS011;20303;48.302;11.914;2022-07-22T12:09:10;9.10;;;8.20;;
29414;SDS011;20303;48.302;11.914;2022-07-22T12:19:14;9.45;;;8.55;;
29414;SDS011;20303;48.302;11.914;2022-07-22T12:29:23;11.57;;;8.65;;
29414;SDS011;20303;48.302;11.914;2022-07-22T12:39:24;10.30;;;8.48;;
29414;SDS011;20303;48.302;11.914;2022-07-22T12:49:26;12.68;;;8.48;;
29414;SDS011;20303;48.302;11.914;2022-07-22T12:59:29;14.15;;;8.63;;
29414;SDS011;20303;48.302;11.914;2022-07-22T13:09:30;16.40;;;9.18;;
29414;SDS011;20303;48.302;11.914;2022-07-22T13:19:32;12.43;;;8.63;;
29414;SDS011;20303;48.302;11.914;2022-07-22T13:29:37;16.40;;;9.05;;
29414;SDS011;20303;48.302;11.914;2022-07-22T13:39:38;14.73;;;9.38;;
29414;SDS011;20303;48.302;11.914;2022-07-22T13:49:42;10.98;;;9.10;;
29414;SDS011;20303;48.302;11.914;2022-07-22T13:59:44;14.57;;;9.23;;
29414;SDS011;20303;48.302;11.914;2022-07-22T14:09:45;10.80;;;9.18;;
29414;SDS011;20303;48.302;11.914;2022-07-22T14:19:46;10.25;;;9.15;;
29414;SDS011;20303;48.302;11.914;2022-07-22T14:29:47;10.43;;;9.07;;
29414;SDS011;20303;48.302;11.914;2022-07-22T14:39:50;11.98;;;9.45;;
29414;SDS011;20303;48.302;11.914;2022-07-22T14:49:52;10.88;;;9.73;;
29414;SDS011;20303;48.302;11.914;2022-07-22T14:59:53;12.27;;;9.35;;
29414;SDS011;20303;48.302;11.914;2022-07-22T15:09:54;11.40;;;9.52;;
29414;SDS011;20303;48.302;11.914;2022-07-22T15:19:55;11.57;;;9.27;;
29414;SDS011;20303;48.302;11.914;2022-07-22T15:29:56;12.15;;;9.57;;
29414;SDS011;20303;48.302;11.914;2022-07-22T15:39:57;11.38;;;10.15;;
29414;SDS011;20303;48.302;11.914;2022-07-22T15:49:58;10.57;;;9.48;;
29414;SDS011;20303;48.302;11.914;2022-07-22T15:59:59;10.30;;;9.27;;
29414;SDS011;20303;48.302;11.914;2022-07-22T16:10:00;12.63;;;9.10;;
29414;SDS011;20303;48.302;11.914;2022-07-22T16:20:01;11.80;;;9.50;;
29414;SDS011;20303;48.302;11.914;2022-07-22T16:30:05;11.45;;;9.90;;
29414;SDS011;20303;48.302;11.914;2022-07-22T16:40:07;10.57;;;9.48;;
29414;SDS011;20303;48.302;11.914;2022-07-22T16:50:11;10.70;;;9.35;;
29414;SDS011;20303;48.302;11.914;2022-07-22T17:00:12;10.35;;;9.10;;
29414;SDS011;20303;48.302;11.914;2022-07-22T17:10:14;9.73;;;8.73;;
29414;SDS011;20303;48.302;11.914;2022-07-22T17:20:16;10.85;;;9.50;;
29414;SDS011;20303;48.302;11.914;2022-07-22T17:30:25;11.00;;;9.57;;
29414;SDS011;20303;48.302;11.914;2022-07-22T17:40:27;10.45;;;9.23;;
29414;SDS011;20303;48.302;11.914;2022-07-22T17:50:28;11.07;;;9.52;;
29414;SDS011;20303;48.302;11.914;2022-07-22T18:00:39;10.43;;;9.40;;
29414;SDS011;20303;48.302;11.914;2022-07-22T18:10:41;11.15;;;9.15;;
29414;SDS011;20303;48.302;11.914;2022-07-22T18:20:42;11.40;;;9.65;;
29414;SDS011;20303;48.302;11.914;2022-07-22T18:30:44;10.73;;;9.60;;
29414;SDS011;20303;48.302;11.914;2022-07-22T18:40:47;11.40;;;9.30;;
29414;SDS011;20303;48.302;11.914;2022-07-22T18:50:48;10.55;;;9.45;;
29414;SDS011;20303;48.302;11.914;2022-07-22T19:00:52;10.20;;;9.20;;
29414;SDS011;20303;48.302;11.914;2022-07-22T19:10:53;12.25;;;9.32;;
29414;SDS011;20303;48.302;11.914;2022-07-22T19:20:54;15.27;;;10.20;;
29414;SDS011;20303;48.302;11.914;2022-07-22T19:30:55;19.83;;;10.27;;
29414;SDS011;20303;48.302;11.914;2022-07-22T19:40:56;19.55;;;10.43;;
29414;SDS011;20303;48.302;11.914;2022-07-22T19:50:59;16.48;;;10.82;;
29414;SDS011;20303;48.302;11.914;2022-07-22T20:01:01;16.98;;;10.65;;
29414;SDS011;20303;48.302;11.914;2022-07-22T20:11:02;18.52;;;11.52;;
29414;SDS011;20303;48.302;11.914;2022-07-22T20:21:03;21.23;;;11.43;;
29414;SDS011;20303;48.302;11.914;2022-07-22T20:31:07;30.63;;;12.48;;
29414;SDS011;20303;48.302;11.914;2022-07-22T20:41:19;29.38;;;12.23;;
29414;SDS011;20303;48.302;11.914;2022-07-22T20:51:21;28.88;;;12.73;;
29414;SDS011;20303;48.302;11.914;2022-07-22T21:01:22;20.08;;;12.40;;
29414;SDS011;20303;48.302;11.914;2022-07-22T21:11:23;21.20;;;13.13;;
29414;SDS011;20303;48.302;11.914;2022-07-22T21:21:24;28.10;;;14.40;;
29414;SDS011;20303;48.302;11.914;2022-07-22T21:31:25;31.83;;;13.80;;
29414;SDS011;20303;48.302;11.914;2022-07-22T21:41:33;31.42;;;14.55;;
29414;SDS011;20303;48.302;11.914;2022-07-22T21:51:34;24.38;;;13.65;;
29414;SDS011;20303;48.302;11.914;2022-07-22T22:01:35;22.13;;;14.32;;
29414;SDS011;20303;48.302;11.914;2022-07-22T22:11:37;21.60;;;13.82;;
29414;SDS011;20303;48.302;11.914;2022-07-22T22:21:38;20.33;;;14.00;;
29414;SDS011;20303;48.302;11.914;2022-07-22T22:31:41;20.50;;;14.07;;
29414;SDS011;20303;48.302;11.914;2022-07-22T22:41:42;18.15;;;14.02;;
29414;SDS011;20303;48.302;11.914;2022-07-22T22:51:43;19.30;;;14.45;;
29414;SDS011;20303;48.302;11.914;2022-07-22T23:12:10;18.63;;;13.40;;
29414;SDS011;20303;48.302;11.914;2022-07-22T23:22:13;16.10;;;12.35;;
29414;SDS011;20303;48.302;11.914;2022-07-22T23:32:14;16.98;;;13.50;;
29414;SDS011;20303;48.302;11.914;2022-07-22T23:52:28;13.80;;;12.30;;
